Tiempo atmosférico en la estación meteorológica de Alcañiz, Teruel (320 m.)



Fecha
DESCASC
Temp. máxima en grados centígrados (hora)
DESCASC
Temp. mínima en grados centígrados (hora)
DESCASC
Temp. media en grados centígrados
DESCASC
Racha de viento máxima en m/sg (hora)
DESCASC
Velocidad máxima media en intervalos de 10 minutos(hora)
DESCASC
Precipitaciones diarias en mm
DESCASC
Precipitaciones de 00:00 a 06:00 en mm
DESCASC
Precipitaciones de 06:00 a 12:00 en mm
DESCASC
Precipitaciones de 12:00 a 18:00 en mm
DESCASC
Precipitaciones de 18:00 a 24:00 en mm
DESCASC
19-02-2019 13.5 (15:10) -2.4 (07:40) 5.5 5 (16:00) 2.78 (17:00) 0 0 0 0 0
18-02-2019 15.2 (17:40) -2.5 (07:00) 6.3 6.39 (15:20) 3.61 (15:30) 0 0 0 0 0
17-02-2019 15.6 (17:00) -3.5 (-00:0) 6.1 5 (16:50) 3.33 (17:10) 0 0 0 0 0
16-02-2019 17.7 (17:20) -2.2 (-00:0) 7.8 6.67 (15:40) 4.17 (15:10) 0 0 0 0 0
15-02-2019 12.1 (16:40) -2 (-00:0) 5.1 4.72 (13:30) 2.78 (13:20) 0 0 0 0 0
14-02-2019 14 (15:20) -2.6 (-00:0) 5.7 5.56 (13:40) 3.06 (16:20) 0 0 0 0 0
13-02-2019 14.5 (16:40) -1.7 (-00:0) 6.4 5.83 (15:50) 3.33 (16:00) 0 0 0 0 0
12-02-2019 13.8 (16:30) -0.6 (-00:0) 6.6 6.39 (11:30) 3.33 (11:20) 0 0 0 0 0
11-02-2019 13 (15:30) 4.8 (00:00) 8.9 14.72 (13:40) 8.06 (13:40) 0 0 0 0 0
10-02-2019 18 (17:00) 2.6 (00:00) 10.3 13.06 (23:00) 6.39 (15:10) 0 0 0 0 0
09-02-2019 16.2 (14:40) 1.4 (00:00) 8.8 5.28 (15:10) 3.61 (16:50) 0 0 0 0 0
08-02-2019 16.1 (15:40) 1.6 (00:00) 8.9 4.17 (17:00) 2.78 (17:00) 0 0 0 0 0
07-02-2019 15.8 (13:30) 2.7 (00:00) 9.3 10.28 (14:10) 5.56 (12:30) 0 0 0 0 0
06-02-2019 16.7 (16:00) 3 (07:00) 9.9 6.11 (00:20) 2.22 (00:10) 0 0 0 0 0
05-02-2019 16.5 (15:30) 3.9 (04:20) 10.2 10.83 (11:20) 5.83 (12:00) 0 0 0 0 0
04-02-2019 13.5 (15:20) -0.2 (00:00) 6.6 11.11 (00:20) 6.39 (01:00) 0 0 0 0 0
03-02-2019 7.7 (14:50) 1.2 (00:00) 4.4 18.89 (16:10) 11.11 (12:10) 0 0 0 0 0
02-02-2019 8.3 (14:00) 2.4 (00:00) 5.4 21.39 (13:20) 11.11 (13:50) 0.3 0 0.3 0 0
01-02-2019 14.7 (01:40) 4 (00:00) 9.3 13.33 (19:10) 6.39 (19:20) 3.5 0 1.6 0.1 1.8
31-01-2019 15.3 (17:10) 3.3 (00:00) 9.3 8.33 (17:10) 3.89 (23:00) 1.7 1.5 0.2 0 0
30-01-2019 11.8 (15:20) 2.5 (00:00) 7.2 10.56 (14:20) 5.83 (13:20) 0.8 0 0 0 0.8
29-01-2019 11 (14:50) 3.3 (00:00) 7.1 13.61 (02:40) 6.39 (02:40) 4.3 0 0 1.4 2.9
28-01-2019 11.1 (16:40) 1.3 (00:00) 6.2 20.28 (15:30) 9.72 (14:40) 0 0 0 0 0
27-01-2019 12.3 (13:20) 0.3 (00:00) 6.3 17.22 (15:10) 10.83 (15:10) 0 0 0 0 0
26-01-2019 15.4 (16:00) 2 (00:00) 8.7 8.33 (01:50) 5 (01:50) 0 0 0 0 0
25-01-2019 13.7 (15:10) 5.3 (00:00) 9.5 17.5 (11:30) 9.72 (16:30) 0 0 0 0 0
24-01-2019 8.1 (14:00) 3.9 (00:00) 6 27.78 (05:10) 8.61 (15:10) 0 0 0 0 0

Gráficas

Temp. máximas Temp. mínimas Temp. medias Precipitaciones Rachas de viento máximas Velocidades máximas media en intervalos de 10 minutos

Datos horarios

Fecha y hora oficial Temperatura (ºC) Velocidad del viento (km/h) Dirección del viento Racha (km/h) Dirección de racha Precipitación (mm) Presión (hPa) Tendencia (hPa) Humedad (%)
2019-02-22 23:00:00 6.7 4 Oeste 12 Sudoeste 0 -- -- 64
2019-02-22 22:00:00 7.3 0 Calma 10 Sudoeste 0 -- -- 63
2019-02-22 21:00:00 7.8 0 Calma 5 Oeste 0 -- -- 62
2019-02-22 20:00:00 9.8 0 Calma 2 Sudoeste 0 -- -- 54
2019-02-22 19:00:00 13.5 0 Calma 4 Sudoeste 0 -- -- 41
2019-02-22 18:00:00 18.7 0 Calma 10 Nordeste 0 -- -- 33
2019-02-22 17:00:00 19 5 Norte 14 Noroeste 0 -- -- 32
2019-02-22 16:00:00 19.2 7 Norte 19 Noroeste 0 -- -- 30
2019-02-22 15:00:00 19.3 10 Noroeste 19 Noroeste 0 -- -- 32
2019-02-22 14:00:00 17.5 12 Noroeste 20 Noroeste 0 -- -- 37
2019-02-22 13:00:00 16.1 8 Noroeste 15 Oeste 0 -- -- 40
2019-02-22 12:00:00 14.1 0 Calma 7 Oeste 0 -- -- 46
2019-02-22 11:00:00 11.3 0 Calma 7 Noroeste 0 -- -- 56
2019-02-22 10:00:00 6.4 3 Oeste 9 Sudoeste 0 -- -- 74
2019-02-22 09:00:00 3.6 0 Calma 5 Oeste 0 -- -- 82
2019-02-22 08:00:00 1.2 0 Calma 9 Sudoeste 0 -- -- 87
2019-02-22 07:00:00 3.3 0 Calma 7 Sudoeste 0 -- -- 83
2019-02-22 06:00:00 2.2 2 Oeste 9 Sudoeste 0 -- -- 87
2019-02-22 05:00:00 2.8 6 Sudoeste 12 Sudoeste 0 -- -- 86
2019-02-22 04:00:00 3 0 Calma 7 Sudoeste 0 -- -- 87
2019-02-22 03:00:00 3.2 3 Sur 10 Oeste 0 -- -- 85
2019-02-22 02:00:00 4.5 2 Sudoeste 9 Sur 0 -- -- 81
2019-02-22 01:00:00 4 2 Sur 6 Sur 0 -- -- 82
2019-02-22 00:00:00 4.6 0 Calma 8 Oeste 0 -- -- 80
2019-02-21 23:00:00 4.6 2 Oeste 6 Oeste 0 -- -- 77
2019-02-21 22:00:00 5.6 0 Calma 6 Sudoeste 0 -- -- 72
2019-02-21 21:00:00 6.5 0 Calma 6 Sudoeste 0 -- -- 65
2019-02-21 20:00:00 8.7 0 Calma 3 Sur 0 -- -- 56
2019-02-21 19:00:00 11.3 0 Calma 6 Nordeste 0 -- -- 45
2019-02-21 18:00:00 14.8 0 Calma 12 Nordeste 0 -- -- 40
2019-02-21 17:00:00 15.4 8 Este 15 Este 0 -- -- 40
2019-02-21 16:00:00 15.4 10 Este 14 Este 0 -- -- 42
2019-02-21 15:00:00 15.3 6 Nordeste 14 Este 0 -- -- 43
2019-02-21 14:00:00 14.3 9 Este 15 Este 0 -- -- 50
2019-02-21 13:00:00 13 8 Este 15 Este 0 -- -- 54
2019-02-21 12:00:00 11.4 0 Calma 10 Noroeste 0 -- -- 53
2019-02-21 11:00:00 8.3 0 Calma 5 Oeste 0 -- -- 62
2019-02-21 10:00:00 4.5 0 Calma 5 Sudoeste 0 -- -- 82
2019-02-21 09:00:00 1.8 0 Calma 3 Oeste 0 -- -- 95
2019-02-21 08:00:00 -0.1 0 Calma -- -- 0 -- -- 97
2019-02-21 07:00:00 -0.4 0 Calma 0 Calma 0 -- -- 97
2019-02-21 06:00:00 -0.2 0 Calma 5 Oeste 0 -- -- 97
2019-02-21 05:00:00 0 0 Calma 4 Sudoeste 0 -- -- 97
2019-02-21 04:00:00 0.1 0 Calma 4 Oeste 0 -- -- 97
2019-02-21 03:00:00 0.6 0 Calma -- -- 0 -- -- 95
2019-02-21 02:00:00 1.2 0 Calma -- -- 0 -- -- 93
2019-02-21 01:00:00 2.3 0 Calma -- -- 0 -- -- 93
2019-02-21 00:00:00 2.8 0 Calma -- -- 0 -- -- 90
2019-02-20 23:00:00 4.3 0 Calma -- -- 0 -- -- 85
2019-02-20 22:00:00 4.7 0 Calma 3 Sur 0 -- -- 83
2019-02-20 21:00:00 6.2 0 Calma 9 Oeste 0 -- -- 77
2019-02-20 20:00:00 7.2 4 Oeste 7 Oeste 0 -- -- 67
2019-02-20 19:00:00 10.3 0 Calma 9 Nordeste 0 -- -- 56
2019-02-20 18:00:00 12.8 4 Nordeste 11 Norte 0 -- -- 50
2019-02-20 17:00:00 13.2 8 Nordeste 13 Este 0 -- -- 48
2019-02-20 16:00:00 13.5 8 Nordeste 15 Este 0 -- -- 46
2019-02-20 15:00:00 13.4 8 Este 14 Este 0 -- -- 48
2019-02-20 14:00:00 13 4 Este 10 Nordeste 0 -- -- 51
2019-02-20 13:00:00 11.2 4 Este 13 Nordeste 0 -- -- 55
2019-02-20 12:00:00 9.9 2 Norte 8 Noroeste 0 -- -- 59
2019-02-20 11:00:00 7.8 0 Calma 0 Calma 0 -- -- 69
2019-02-20 10:00:00 3.7 0 Calma -- -- 0 -- -- 89
2019-02-20 09:00:00 0.2 0 Calma -- -- 0 -- -- 98
2019-02-20 08:00:00 -2 0 Calma -- -- 0 -- -- 98
2019-02-20 07:00:00 -1.8 0 Calma -- -- 0 -- -- 97
2019-02-20 06:00:00 -1.2 0 Calma -- -- 0 -- -- 97
2019-02-20 05:00:00 -0.5 0 Calma -- -- 0 -- -- 97
2019-02-20 04:00:00 -0.4 0 Calma -- -- 0 -- -- 97
2019-02-20 03:00:00 -0.4 0 Calma 4 Oeste 0 -- -- 97
2019-02-20 02:00:00 0.8 0 Calma 4 Sudoeste 0 -- -- 96
2019-02-20 01:00:00 1.6 0 Calma -- -- 0 -- -- 95
2019-02-20 00:00:00 2.9 0 Calma 4 Nordeste 0 -- -- 94
2019-02-19 23:00:00 4 0 Calma 3 Norte 0 -- -- 92
2019-02-19 22:00:00 4.7 0 Calma 5 Sudeste 0 -- -- 87
2019-02-19 21:00:00 5.7 0 Calma 5 Sur 0 -- -- 83
2019-02-19 20:00:00 7.7 0 Calma 5 Oeste 0 -- -- 75
2019-02-19 19:00:00 9 0 Calma 12 Este 0 -- -- 67
2019-02-19 18:00:00 11.7 6 Nordeste 13 Norte 0 -- -- 58
2019-02-19 17:00:00 12.5 10 Este 17 Este 0 -- -- 54
2019-02-19 16:00:00 12.6 9 Este 18 Este 0 -- -- 50
2019-02-19 15:00:00 12.6 4 Sudoeste 13 Oeste 0 -- -- 55
2019-02-19 14:00:00 10 5 Sudoeste 14 Oeste 0 -- -- 70
2019-02-19 13:00:00 7.2 5 Sudoeste 11 Sudoeste 0 -- -- 84
2019-02-19 12:00:00 4.8 3 Noroeste 12 Oeste 0 -- -- 96
2019-02-19 11:00:00 4.2 5 Oeste 11 Oeste 0 -- -- 97
2019-02-19 10:00:00 2.7 0 Calma 5 Sudoeste 0 -- -- 83
2019-02-19 09:00:00 -0.1 0 Calma 5 Sudeste 0 -- -- 90
2019-02-19 08:00:00 -2 4 Oeste 6 Oeste 0 -- -- 93
2019-02-19 07:00:00 -1.4 0 Calma 2 Nordeste 0 -- -- 93
2019-02-19 06:00:00 -1.6 2 Sudoeste 5 Sudoeste 0 -- -- 95
2019-02-19 05:00:00 -1.2 0 Calma 8 Oeste 0 -- -- 95
2019-02-19 04:00:00 -1.1 0 Calma 6 Oeste 0 -- -- 95
2019-02-19 03:00:00 0 0 Calma -- -- 0 -- -- 94
2019-02-19 02:00:00 0.7 0 Calma -- -- 0 -- -- 93
2019-02-19 01:00:00 1.6 0 Calma 0 Calma 0 -- -- 91
2019-02-19 00:00:00 2.5 0 Calma 9 Sudoeste 0 -- -- 89
2019-02-18 23:00:00 4.1 0 Calma 6 Norte 0 -- -- 85
2019-02-18 22:00:00 4.3 0 Calma 7 Sudoeste 0 -- -- 86
2019-02-18 21:00:00 6.7 0 Calma 5 Oeste 0 -- -- 81
2019-02-18 20:00:00 8 0 Calma 6 Sur 0 -- -- 73
2019-02-18 19:00:00 10.7 4 Sur 9 Este 0 -- -- 61
2019-02-18 18:00:00 14.8 3 Norte 14 Norte 0 -- -- 49
2019-02-18 17:00:00 14.6 6 Nordeste 19 Nordeste 0 -- -- 51
2019-02-18 16:00:00 13.7 11 Nordeste 23 Nordeste 0 -- -- 52
2019-02-18 15:00:00 13.1 10 Nordeste 18 Nordeste 0 -- -- 56
2019-02-18 14:00:00 12.4 6 Nordeste 17 Este 0 -- -- 55
2019-02-18 13:00:00 10.4 3 Nordeste 10 Este 0 -- -- 59
2019-02-18 12:00:00 7 0 Calma 8 Oeste 0 -- -- 74
2019-02-18 11:00:00 3.2 2 Sudoeste 9 Oeste 0 -- -- 97
2019-02-18 10:00:00 1.4 0 Calma 4 Oeste 0 -- -- 98
2019-02-18 09:00:00 0 0 Calma -- -- 0 -- -- 98
2019-02-18 08:00:00 -1.5 0 Calma 4 Sudoeste 0 -- -- 95
2019-02-18 07:00:00 -2.2 3 Oeste 5 Sudoeste 0 -- -- 94
2019-02-18 06:00:00 -1.8 0 Calma 3 Sur 0 -- -- 93
2019-02-18 05:00:00 -1.5 0 Calma 5 Oeste 0 -- -- 93
2019-02-18 04:00:00 0 0 Calma 5 Sudeste 0 -- -- 90
2019-02-18 03:00:00 0.8 0 Calma 10 Oeste 0 -- -- 87
2019-02-18 02:00:00 2.7 2 Este 7 Sudeste 0 -- -- 79
2019-02-18 01:00:00 4.4 4 Este 9 Este 0 -- -- 71
2019-02-18 00:00:00 5 4 Este 8 Este 0 -- -- 60
2019-02-17 23:00:00 6.6 5 Este 8 Este 0 -- -- 53
2019-02-17 22:00:00 8.5 3 Nordeste 6 Nordeste 0 -- -- 45
2019-02-17 21:00:00 10.2 6 Este 9 Este 0 -- -- 45
2019-02-17 20:00:00 10.9 3 Nordeste 13 Sudeste 0 -- -- 44
2019-02-17 19:00:00 12.7 4 Sudeste 13 Sudeste 0 -- -- 42
2019-02-17 18:00:00 14.9 7 Este 17 Este 0 -- -- 41
2019-02-17 17:00:00 15.5 11 Nordeste 18 Nordeste 0 -- -- 38
2019-02-17 16:00:00 14.9 9 Nordeste 15 Nordeste 0 -- -- 37
2019-02-17 15:00:00 14.1 8 Este 16 Este 0 -- -- 37
2019-02-17 14:00:00 14 5 Nordeste 14 Este 0 -- -- 32
2019-02-17 13:00:00 12.3 6 Este 10 Este 0 -- -- 36
2019-02-17 12:00:00 11.8 0 Calma 6 Oeste 0 -- -- 32
2019-02-17 11:00:00 8.2 0 Calma 6 Oeste 0 -- -- 37
2019-02-17 10:00:00 4.9 0 Calma 4 Este 0 -- -- 51
2019-02-17 09:00:00 -1.1 0 Calma 3 Este 0 -- -- 67
2019-02-17 08:00:00 -3 0 Calma 3 Sudoeste 0 -- -- 69
2019-02-17 07:00:00 -2.9 0 Calma 3 Sur 0 -- -- 67
2019-02-17 06:00:00 -1.9 0 Calma -- -- 0 -- -- 65
2019-02-17 05:00:00 -2 0 Calma -- -- 0 -- -- 62
2019-02-17 04:00:00 -0.8 0 Calma 6 Sudoeste 0 -- -- 58
2019-02-17 03:00:00 0 0 Calma 5 Oeste 0 -- -- 55
2019-02-17 02:00:00 0.3 0 Calma 4 Oeste 0 -- -- 56
2019-02-17 01:00:00 1.5 0 Calma 3 Nordeste 0 -- -- 51
2019-02-17 00:00:00 3.3 0 Calma 4 Nordeste 0 -- -- 45
2019-02-16 23:00:00 4.7 0 Calma 3 Nordeste 0 -- -- 41
2019-02-16 22:00:00 7.5 0 Calma 11 Este 0 -- -- 34
2019-02-16 21:00:00 7.6 3 Nordeste 15 Este 0 -- -- 37
2019-02-16 20:00:00 9.3 7 Este 12 Este 0 -- -- 34
2019-02-16 19:00:00 11.6 9 Este 14 Este 0 -- -- 30
2019-02-16 18:00:00 16.2 6 Sudeste 18 Sudeste 0 -- -- 24
2019-02-16 17:00:00 16.9 10 Este 19 Este 0 -- -- 26
2019-02-16 16:00:00 15.7 14 Nordeste 24 Este 0 -- -- 33
2019-02-16 15:00:00 14.1 13 Nordeste 23 Nordeste 0 -- -- 46
2019-02-16 14:00:00 11.8 7 Nordeste 14 Este 0 -- -- 57
2019-02-16 13:00:00 10.5 8 Este 15 Este 0 -- -- 62
2019-02-16 12:00:00 9.2 6 Este 11 Este 0 -- -- 63
2019-02-16 11:00:00 7 3 Este 8 Sudeste 0 -- -- 70
2019-02-16 10:00:00 2.3 2 Sudoeste 8 Oeste 0 -- -- 88
2019-02-16 09:00:00 0 0 Calma -- -- 0 -- -- 97
2019-02-16 08:00:00 -1.9 0 Calma 4 Sudoeste 0 -- -- 97
2019-02-16 07:00:00 -1.4 0 Calma 0 Calma 0 -- -- 98
2019-02-16 06:00:00 -1.2 0 Calma 4 Oeste 0 -- -- 97
2019-02-16 05:00:00 -1.1 0 Calma 2 Oeste 0 -- -- 97
2019-02-16 04:00:00 -0.2 3 Oeste 7 Sudoeste 0 -- -- 97
2019-02-16 03:00:00 -0.4 0 Calma 4 Oeste 0 -- -- 96
2019-02-16 02:00:00 0.4 0 Calma 2 Noroeste 0 -- -- 96
2019-02-16 01:00:00 0.6 0 Calma 4 Sudoeste 0 -- -- 94
2019-02-16 00:00:00 1.7 0 Calma 5 Sudoeste 0 -- -- 93
2019-02-15 23:00:00 2.1 2 Sudoeste 6 Oeste 0 -- -- 91
2019-02-15 22:00:00 3.4 0 Calma 4 Sudoeste 0 -- -- 88
2019-02-15 21:00:00 4.6 0 Calma -- -- 0 -- -- 82
2019-02-15 20:00:00 5.7 0 Calma -- -- 0 -- -- 74
2019-02-15 19:00:00 8.1 0 Calma 12 Oeste 0 -- -- 65
2019-02-15 18:00:00 10.5 5 Oeste 14 Oeste 0 -- -- 57
2019-02-15 17:00:00 11.8 7 Noroeste 13 Noroeste 0 -- -- 53
2019-02-15 16:00:00 11.5 6 Noroeste 14 Noroeste 0 -- -- 55
2019-02-15 15:00:00 11.1 4 Oeste 15 Oeste 0 -- -- 59
2019-02-15 14:00:00 9.1 10 Noroeste 17 Oeste 0 -- -- 69
2019-02-15 13:00:00 7.7 10 Noroeste 16 Noroeste 0 -- -- 75
2019-02-15 12:00:00 6.6 6 Sudoeste 13 Norte 0 -- -- 81
2019-02-15 11:00:00 3.7 3 Norte 8 Oeste 0 -- -- 96
2019-02-15 10:00:00 0.5 2 Oeste 5 Sudoeste 0 -- -- 98
2019-02-15 09:00:00 -0.6 0 Calma 3 Sur 0 -- -- 98
2019-02-15 08:00:00 -0.7 0 Calma 5 Sur 0 -- -- 98
2019-02-15 07:00:00 -1.7 0 Calma 2 Este 0 -- -- 98
2019-02-15 06:00:00 -1.3 0 Calma 4 Noroeste 0 -- -- 98
2019-02-15 05:00:00 -1.8 0 Calma 5 Este 0 -- -- 94
2019-02-15 04:00:00 -1.5 0 Calma 5 Sudoeste 0 -- -- 94
2019-02-15 03:00:00 -0.9 0 Calma 5 Sudoeste 0 -- -- 93
2019-02-15 02:00:00 -0.2 0 Calma 5 Sudoeste 0 -- -- 92
2019-02-15 01:00:00 0.9 0 Calma 4 Este 0 -- -- 91
2019-02-15 00:00:00 1.9 0 Calma 5 Oeste 0 -- -- 90
2019-02-14 23:00:00 3.1 0 Calma 4 Este 0 -- -- 90
2019-02-14 22:00:00 4 0 Calma 5 Oeste 0 -- -- 86
2019-02-14 21:00:00 6 0 Calma 4 Sur 0 -- -- 75
2019-02-14 20:00:00 8 2 Sudeste 8 Norte 0 -- -- 66
2019-02-14 19:00:00 9.7 6 Nordeste 11 Nordeste 0 -- -- 59
2019-02-14 18:00:00 12.9 6 Nordeste 15 Nordeste 0 -- -- 48
2019-02-14 17:00:00 13.8 7 Este 17 Este 0 -- -- 48
2019-02-14 16:00:00 13.3 9 Nordeste 15 Nordeste 0 -- -- 51
2019-02-14 15:00:00 12.8 3 Nordeste 12 Oeste 0 -- -- 56
2019-02-14 14:00:00 10.4 7 Oeste 20 Noroeste 0 -- -- 64
2019-02-14 13:00:00 9.2 4 Sudoeste 12 Oeste 0 -- -- 68
2019-02-14 12:00:00 5.7 2 Norte 9 Norte 0 -- -- 97
2019-02-14 11:00:00 3 0 Calma 6 Oeste 0 -- -- 99
2019-02-14 10:00:00 0.5 2 Oeste 6 Oeste 0 -- -- 99
2019-02-14 09:00:00 0.1 0 Calma 5 Oeste 0 -- -- 99
2019-02-14 08:00:00 -0.4 0 Calma -- -- 0 -- -- 99
2019-02-14 07:00:00 -1.5 0 Calma 3 Oeste 0 -- -- 99
2019-02-14 06:00:00 -2.5 2 Oeste 5 Sudoeste 0 -- -- 98
2019-02-14 05:00:00 -1.6 0 Calma -- -- 0 -- -- 97
2019-02-14 04:00:00 -1 2 Oeste 4 Oeste 0 -- -- 97
2019-02-14 03:00:00 -0.2 0 Calma -- -- 0 -- -- 96
2019-02-14 02:00:00 0.2 0 Calma 3 Sur 0 -- -- 96
2019-02-14 01:00:00 1.6 0 Calma 2 Este 0 -- -- 96
2019-02-14 00:00:00 2.4 0 Calma 3 Sudoeste 0 -- -- 93
2019-02-13 23:00:00 3.4 0 Calma 5 Sudoeste 0 -- -- 89
2019-02-13 22:00:00 4.5 0 Calma 2 Noroeste 0 -- -- 83
2019-02-13 21:00:00 6.5 0 Calma 4 Sur 0 -- -- 78
2019-02-13 20:00:00 8.3 0 Calma 4 Oeste 0 -- -- 71
2019-02-13 19:00:00 10.2 2 Norte 12 Nordeste 0 -- -- 63
2019-02-13 18:00:00 13.3 6 Nordeste 16 Nordeste 0 -- -- 50
2019-02-13 17:00:00 14.4 8 Nordeste 18 Nordeste 0 -- -- 47
2019-02-13 16:00:00 13.9 12 Nordeste 21 Este 0 -- -- 49
2019-02-13 15:00:00 13.3 8 Nordeste 15 Nordeste 0 -- -- 49
2019-02-13 14:00:00 12.2 10 Este 17 Este 0 -- -- 52
2019-02-13 13:00:00 11.1 10 Este 15 Este 0 -- -- 56
2019-02-13 12:00:00 10.2 8 Este 13 Este 0 -- -- 59
2019-02-13 11:00:00 8.1 0 Calma 4 Oeste 0 -- -- 64
2019-02-13 10:00:00 3.9 0 Calma 8 Sudeste 0 -- -- 79
2019-02-13 09:00:00 0.6 0 Calma 5 Sudoeste 0 -- -- 93
2019-02-13 08:00:00 -1.3 0 Calma 3 Sudoeste 0 -- -- 95
2019-02-13 07:00:00 -0.4 0 Calma 3 Este 0 -- -- 93
2019-02-13 06:00:00 0.6 0 Calma 7 Sudoeste 0 -- -- 90
2019-02-13 05:00:00 1 0 Calma 8 Sudoeste 0 -- -- 90
2019-02-13 04:00:00 1.6 3 Sudoeste 7 Sur 0 -- -- 90
2019-02-13 03:00:00 1.7 3 Sudoeste 8 Oeste 0 -- -- 90
2019-02-13 02:00:00 1.8 4 Sudoeste 8 Sudoeste 0 -- -- 91
2019-02-13 01:00:00 1.3 0 Calma 6 Sudoeste 0 -- -- 90
2019-02-13 00:00:00 2.1 0 Calma 5 Oeste 0 -- -- 89
2019-02-12 23:00:00 2.2 0 Calma 5 Oeste 0 -- -- 87
2019-02-12 22:00:00 3.8 0 Calma 5 Sudoeste 0 -- -- 82
2019-02-12 21:00:00 4.4 0 Calma 4 Sur 0 -- -- 78
2019-02-12 20:00:00 6.6 0 Calma 7 Noroeste 0 -- -- 69
2019-02-12 19:00:00 8.6 4 Norte 12 Nordeste 0 -- -- 61
2019-02-12 18:00:00 11.7 6 Nordeste 14 Nordeste 0 -- -- 48
2019-02-12 17:00:00 13 5 Nordeste 11 Este 0 -- -- 46
2019-02-12 16:00:00 12.4 4 Norte 11 Sudoeste 0 -- -- 47
2019-02-12 15:00:00 12.3 4 Sudeste 12 Noroeste 0 -- -- 49
2019-02-12 14:00:00 11.3 5 Sudoeste 21 Oeste 0 -- -- 52
2019-02-12 13:00:00 10.5 6 Sudoeste 17 Oeste 0 -- -- 55
2019-02-12 12:00:00 9.2 9 Noroeste 23 Oeste 0 -- -- 60
2019-02-12 11:00:00 8.2 8 Oeste 19 Sudoeste 0 -- -- 66
2019-02-12 10:00:00 5.1 2 Sur 9 Sur 0 -- -- 81
2019-02-12 09:00:00 1.2 4 Sudoeste 8 Sudoeste 0 -- -- 90
2019-02-12 08:00:00 0 4 Sudoeste 9 Oeste 0 -- -- 94
2019-02-12 07:00:00 0.6 6 Oeste 8 Oeste 0 -- -- 92
2019-02-12 06:00:00 0.6 0 Calma 8 Oeste 0 -- -- 93
2019-02-12 05:00:00 1.1 5 Oeste 8 Oeste 0 -- -- 92
2019-02-12 04:00:00 0.4 3 Oeste 6 Oeste 0 -- -- 93
2019-02-12 03:00:00 2 0 Calma 8 Sudoeste 0 -- -- 90
2019-02-12 02:00:00 2.9 4 Sudoeste 6 Sudoeste 0 -- -- 87
2019-02-12 01:00:00 3.2 3 Oeste 8 Sudoeste 0 -- -- 84
2019-02-12 00:00:00 4.8 5 Sudoeste 18 Sur 0 -- -- 78
2019-02-11 23:00:00 6 9 Sudoeste 17 Sudoeste 0 -- -- 77
2019-02-11 22:00:00 6.1 6 Sudoeste 14 Sudoeste 0 -- -- 75
2019-02-11 21:00:00 6.7 5 Sudoeste 14 Oeste 0 -- -- 71
2019-02-11 20:00:00 8.1 8 Sudoeste 26 Oeste 0 -- -- 65
2019-02-11 19:00:00 9.2 15 Oeste 32 Oeste 0 -- -- 61
2019-02-11 18:00:00 10.1 18 Oeste 35 Noroeste 0 -- -- 57
2019-02-11 17:00:00 11.1 21 Oeste 42 Noroeste 0 -- -- 54
2019-02-11 16:00:00 11.9 24 Noroeste 48 Noroeste 0 -- -- 52
2019-02-11 15:00:00 11.7 17 Noroeste 44 Oeste 0 -- -- 52
2019-02-11 14:00:00 11.3 26 Noroeste 53 Noroeste 0 -- -- 51
2019-02-11 13:00:00 11.8 21 Oeste 42 Oeste 0 -- -- 54
2019-02-11 12:00:00 10.5 19 Oeste 38 Oeste 0 -- -- 59
2019-02-11 11:00:00 9.3 21 Oeste 34 Oeste 0 -- -- 62
2019-02-11 10:00:00 8.5 18 Oeste 30 Sudoeste 0 -- -- 62
2019-02-11 09:00:00 6.5 10 Sudoeste 30 Oeste 0 -- -- 67
2019-02-11 08:00:00 6.5 15 Oeste 33 Oeste 0 -- -- 67
2019-02-11 07:00:00 6.2 12 Oeste 31 Oeste 0 -- -- 67
2019-02-11 06:00:00 6.1 15 Oeste 33 Oeste 0 -- -- 70
2019-02-11 05:00:00 6.3 14 Oeste 42 Oeste 0 -- -- 71
2019-02-11 04:00:00 7 18 Oeste 32 Noroeste 0 -- -- 74
2019-02-11 03:00:00 7.5 20 Oeste 41 Oeste 0 -- -- 72
2019-02-11 02:00:00 7.9 17 Oeste 31 Oeste 0 -- -- 73
2019-02-11 01:00:00 8 16 Oeste 33 Oeste 0 -- -- 73
2019-02-11 00:00:00 8.1 18 Oeste 37 Oeste 0 -- -- 74
2019-02-10 23:00:00 8.7 22 Oeste 47 Oeste 0 -- -- 73
2019-02-10 22:00:00 9.4 19 Oeste 36 Oeste 0 -- -- 76
2019-02-10 21:00:00 9.7 19 Oeste 41 Oeste 0 -- -- 75
2019-02-10 20:00:00 12 20 Noroeste 38 Noroeste 0 -- -- 69
2019-02-10 19:00:00 14.9 12 Oeste 32 Oeste 0 -- -- 50
2019-02-10 18:00:00 16.2 15 Oeste 37 Oeste 0 -- -- 46
2019-02-10 17:00:00 17.1 19 Oeste 40 Oeste 0 -- -- 43
2019-02-10 16:00:00 16.9 22 Oeste 43 Oeste 0 -- -- 43
2019-02-10 15:00:00 17.7 19 Oeste 41 Oeste 0 -- -- 43
2019-02-10 14:00:00 16.4 15 Noroeste 30 Oeste 0 -- -- 45
2019-02-10 13:00:00 14 6 Oeste 21 Sudoeste 0 -- -- 50
2019-02-10 12:00:00 12.5 8 Oeste 21 Oeste 0 -- -- 53
2019-02-10 11:00:00 10.8 13 Sudoeste 25 Sudoeste 0 -- -- 60
2019-02-10 10:00:00 5.7 0 Calma 8 Sur 0 -- -- 85
2019-02-10 09:00:00 4.8 0 Calma 6 Sur 0 -- -- 89
2019-02-10 08:00:00 3.7 0 Calma 9 Oeste 0 -- -- 93
2019-02-10 07:00:00 3.4 4 Oeste 9 Oeste 0 -- -- 95
2019-02-10 06:00:00 2.7 0 Calma 7 Oeste 0 -- -- 96
2019-02-10 05:00:00 3.5 0 Calma 4 Sur 0 -- -- 94
2019-02-10 04:00:00 4.2 0 Calma 3 Sudoeste 0 -- -- 93
2019-02-10 03:00:00 4.8 0 Calma 3 Norte 0 -- -- 90
2019-02-10 02:00:00 4.8 0 Calma 4 Sudoeste 0 -- -- 92
2019-02-10 01:00:00 5.2 0 Calma 4 Sudoeste 0 -- -- 90
2019-02-10 00:00:00 5.3 0 Calma 6 Norte 0 -- -- 89
2019-02-09 23:00:00 5.9 0 Calma 6 Oeste 0 -- -- 84
2019-02-09 22:00:00 7.4 0 Calma 5 Sur 0 -- -- 79
2019-02-09 21:00:00 8.4 3 Sudoeste 6 Sur 0 -- -- 74
2019-02-09 20:00:00 9.8 0 Calma 7 Nordeste 0 -- -- 66
2019-02-09 19:00:00 11.7 6 Nordeste 12 Nordeste 0 -- -- 56
2019-02-09 18:00:00 13.9 9 Nordeste 19 Nordeste 0 -- -- 51
2019-02-09 17:00:00 14.4 13 Nordeste 19 Nordeste 0 -- -- 48
2019-02-09 16:00:00 15.2 9 Nordeste 19 Este 0 -- -- 47
2019-02-09 15:00:00 15.6 4 Norte 13 Nordeste 0 -- -- 47
2019-02-09 14:00:00 15.5 5 Este 13 Sudoeste 0 -- -- 46
2019-02-09 13:00:00 14.1 3 Noroeste 9 Noroeste 0 -- -- 49
2019-02-09 12:00:00 13.9 4 Sur 10 Sur 0 -- -- 51
2019-02-09 11:00:00 10.7 0 Calma 6 Sudeste 0 -- -- 62
2019-02-09 10:00:00 4.9 3 Sudoeste 8 Oeste 0 -- -- 78
2019-02-09 09:00:00 2.9 5 Sudoeste 10 Sur 0 -- -- 82
2019-02-09 08:00:00 1.8 3 Sudoeste 7 Sudoeste 0 -- -- 86
2019-02-09 07:00:00 2 2 Oeste 7 Oeste 0 -- -- 86
2019-02-09 06:00:00 3.6 4 Oeste 12 Oeste 0 -- -- 79
2019-02-09 05:00:00 3 3 Sudoeste 9 Oeste 0 -- -- 82
2019-02-09 04:00:00 3.6 3 Oeste 5 Sudoeste 0 -- -- 81
2019-02-09 03:00:00 2.8 3 Sudoeste 5 Sudoeste 0 -- -- 89
2019-02-09 02:00:00 3.9 3 Sudoeste 8 Sudoeste 0 -- -- 88
2019-02-09 01:00:00 3.6 0 Calma 8 Oeste 0 -- -- 90
2019-02-09 00:00:00 3.6 2 Oeste 6 Oeste 0 -- -- 88
2019-02-08 23:00:00 4.9 3 Sudoeste 8 Sudoeste 0 -- -- 84
2019-02-08 22:00:00 5.5 4 Oeste 8 Sudoeste 0 -- -- 81
2019-02-08 21:00:00 6.7 3 Sur 8 Noroeste 0 -- -- 71
2019-02-08 20:00:00 9.4 0 Calma 9 Nordeste 0 -- -- 59
2019-02-08 19:00:00 12.5 4 Nordeste 12 Nordeste 0 -- -- 50
2019-02-08 18:00:00 14.4 5 Nordeste 14 Nordeste 0 -- -- 46
2019-02-08 17:00:00 15.4 10 Nordeste 15 Nordeste 0 -- -- 43
2019-02-08 16:00:00 15.8 7 Nordeste 12 Este 0 -- -- 43
2019-02-08 15:00:00 15.1 6 Nordeste 14 Este 0 -- -- 47
2019-02-08 14:00:00 14.7 9 Este 14 Este 0 -- -- 52
2019-02-08 13:00:00 13.7 8 Este 14 Nordeste 0 -- -- 54
2019-02-08 12:00:00 11.9 6 Nordeste 10 Este 0 -- -- 57
2019-02-08 11:00:00 9.5 0 Calma 7 Sudoeste 0 -- -- 68
2019-02-08 10:00:00 6 0 Calma 5 Sur 0 -- -- 80
2019-02-08 09:00:00 2.5 3 Sur 10 Sudoeste 0 -- -- 93
2019-02-08 08:00:00 2.2 0 Calma 4 Sudoeste 0 -- -- 93
2019-02-08 07:00:00 2.9 0 Calma 7 Sur 0 -- -- 92
2019-02-08 06:00:00 3 3 Sudoeste 7 Sudoeste 0 -- -- 93
2019-02-08 05:00:00 3.6 4 Sudoeste 7 Sudoeste 0 -- -- 93
2019-02-08 04:00:00 3.6 0 Calma 9 Sudoeste 0 -- -- 92
2019-02-08 03:00:00 4.3 0 Calma 9 Sur 0 -- -- 90
2019-02-08 02:00:00 5 4 Sur 8 Sur 0 -- -- 89
2019-02-08 01:00:00 5.5 5 Sudoeste 9 Sudoeste 0 -- -- 86
2019-02-08 00:00:00 6 5 Sur 12 Sudoeste 0 -- -- 83
2019-02-07 23:00:00 6.8 0 Calma 14 Sudoeste 0 -- -- 81
2019-02-07 22:00:00 6.9 3 Sur 10 Sudoeste 0 -- -- 82
2019-02-07 21:00:00 7.8 5 Sur 15 Oeste 0 -- -- 76
2019-02-07 20:00:00 10 6 Oeste 16 Oeste 0 -- -- 66
2019-02-07 19:00:00 11.1 8 Noroeste 24 Noroeste 0 -- -- 61
2019-02-07 18:00:00 13 13 Noroeste 28 Noroeste 0 -- -- 52
2019-02-07 17:00:00 14.9 17 Noroeste 32 Noroeste 0 -- -- 47
2019-02-07 16:00:00 15.7 15 Noroeste 36 Oeste 0 -- -- 46
2019-02-07 15:00:00 15.4 18 Noroeste 37 Oeste 0 -- -- 46
2019-02-07 14:00:00 15.2 15 Oeste 33 Noroeste 0 -- -- 46
2019-02-07 13:00:00 14.7 19 Noroeste 34 Noroeste 0 -- -- 46
2019-02-07 12:00:00 14.1 15 Oeste 33 Oeste 0 -- -- 47
2019-02-07 11:00:00 11.2 4 Sudoeste 8 Sudoeste 0 -- -- 63
2019-02-07 10:00:00 5.7 0 Calma 6 Oeste 0 -- -- 90
2019-02-07 09:00:00 3.7 3 Oeste 6 Sudoeste 0 -- -- 94
2019-02-07 08:00:00 3.4 0 Calma 6 Sudoeste 0 -- -- 94
2019-02-07 07:00:00 3.2 0 Calma -- -- 0 -- -- 94
2019-02-07 06:00:00 3.6 0 Calma -- -- 0 -- -- 94
2019-02-07 05:00:00 3 0 Calma 5 Oeste 0 -- -- 95
2019-02-07 04:00:00 3.5 0 Calma 7 Oeste 0 -- -- 93
2019-02-07 03:00:00 3.9 4 Oeste 8 Sudoeste 0 -- -- 92
2019-02-07 02:00:00 4.1 4 Sudoeste 7 Sudoeste 0 -- -- 93
2019-02-07 01:00:00 4.3 3 Sudoeste 7 Oeste 0 -- -- 92
2019-02-07 00:00:00 5.1 3 Sudoeste 6 Sudoeste 0 -- -- 91
2019-02-06 23:00:00 6 0 Calma 4 Oeste 0 -- -- 88
2019-02-06 22:00:00 6.8 0 Calma 7 Sudoeste 0 -- -- 84
2019-02-06 21:00:00 7.7 0 Calma -- -- 0 -- -- 80
2019-02-06 20:00:00 9.2 0 Calma -- -- 0 -- -- 73
2019-02-06 19:00:00 11.3 0 Calma 9 Este 0 -- -- 60
2019-02-06 18:00:00 14.6 5 Este 10 Este 0 -- -- 52
2019-02-06 17:00:00 15.7 5 Nordeste 12 Este 0 -- -- 49
2019-02-06 16:00:00 16.7 4 Noroeste 12 Norte 0 -- -- 48
2019-02-06 15:00:00 15.6 5 Norte 14 Norte 0 -- -- 50
2019-02-06 14:00:00 14.9 5 Norte 15 Oeste 0 -- -- 51
2019-02-06 13:00:00 14 6 Oeste 13 Oeste 0 -- -- 52
2019-02-06 12:00:00 13.4 0 Calma 7 Sudoeste 0 -- -- 55
2019-02-06 11:00:00 11.1 3 Sudeste 8 Sudeste 0 -- -- 65
2019-02-06 10:00:00 8.7 0 Calma 6 Sur 0 -- -- 77
2019-02-06 09:00:00 5.4 0 Calma 6 Sudoeste 0 -- -- 90
2019-02-06 08:00:00 4.4 4 Sur 7 Sur 0 -- -- 94
2019-02-06 07:00:00 3.1 2 Sudoeste 6 Sudoeste 0 -- -- 95
2019-02-06 06:00:00 4 0 Calma 4 Sur 0 -- -- 94
2019-02-06 05:00:00 4.7 0 Calma 7 Sur 0 -- -- 94
2019-02-06 04:00:00 5 0 Calma 9 Sudoeste 0 -- -- 92
2019-02-06 03:00:00 5.6 3 Oeste 11 Noroeste 0 -- -- 91
2019-02-06 02:00:00 6.7 0 Calma 6 Sur 0 -- -- 87
2019-02-06 01:00:00 8.6 0 Calma 22 Sudoeste 0 -- -- 79
2019-02-06 00:00:00 10.1 9 Sudoeste 26 Oeste 0 -- -- 75
2019-02-05 23:00:00 10.5 10 Oeste 21 Oeste 0 -- -- 75
2019-02-05 22:00:00 9.2 4 Sudoeste 14 Oeste 0 -- -- 79
2019-02-05 21:00:00 9.9 5 Sudoeste 12 Sudoeste 0 -- -- 72
2019-02-05 20:00:00 11.3 8 Oeste 21 Oeste 0 -- -- 66
2019-02-05 19:00:00 12.4 3 Sudoeste 13 Oeste 0 -- -- 62
2019-02-05 18:00:00 14.9 8 Oeste 30 Noroeste 0 -- -- 53
2019-02-05 17:00:00 16.1 14 Noroeste 37 Oeste 0 -- -- 51
2019-02-05 16:00:00 16 18 Oeste 37 Oeste 0 -- -- 51
2019-02-05 15:00:00 15.7 19 Noroeste 32 Oeste 0 -- -- 54
2019-02-05 14:00:00 15.1 18 Oeste 34 Oeste 0 -- -- 54
2019-02-05 13:00:00 14 17 Noroeste 35 Oeste 0 -- -- 58
2019-02-05 12:00:00 13.2 21 Oeste 39 Oeste 0 -- -- 62
2019-02-05 11:00:00 11.8 17 Oeste 32 Oeste 0 -- -- 67
2019-02-05 10:00:00 9.7 6 Sudoeste 13 Sudoeste 0 -- -- 73
2019-02-05 09:00:00 8.8 5 Sudoeste 9 Sudoeste 0 -- -- 76
2019-02-05 08:00:00 8.1 3 Sudoeste 10 Sudoeste 0 -- -- 77
2019-02-05 07:00:00 6.5 5 Sur 9 Sur 0 -- -- 82
2019-02-05 06:00:00 5.8 0 Calma 4 Sur 0 -- -- 80
2019-02-05 05:00:00 5 0 Calma 6 Sudoeste 0 -- -- 79
2019-02-05 04:00:00 4.5 0 Calma 5 Norte 0 -- -- 73
2019-02-05 03:00:00 5.4 0 Calma 4 Sudeste 0 -- -- 68
2019-02-05 02:00:00 5.7 2 Oeste 8 Oeste 0 -- -- 63
2019-02-05 01:00:00 6 4 Sudoeste 10 Oeste 0 -- -- 53
2019-02-05 00:00:00 6.7 5 Sudoeste 9 Sudoeste 0 -- -- 50
2019-02-04 23:00:00 7.7 8 Sudoeste 12 Sudoeste 0 -- -- 48
2019-02-04 22:00:00 7.5 2 Sur 6 Sur 0 -- -- 47
2019-02-04 21:00:00 6.9 0 Calma 7 Sur 0 -- -- 49
2019-02-04 20:00:00 8 4 Sur 10 Oeste 0 -- -- 43
2019-02-04 19:00:00 10.5 8 Oeste 23 Oeste 0 -- -- 35
2019-02-04 18:00:00 10.3 0 Calma 14 Noroeste 0 -- -- 38
2019-02-04 17:00:00 12.1 8 Noroeste 19 Noroeste 0 -- -- 33
2019-02-04 16:00:00 12.7 11 Oeste 22 Noroeste 0 -- -- 30
2019-02-04 15:00:00 12.7 10 Noroeste 19 Oeste 0 -- -- 30
2019-02-04 14:00:00 12.1 6 Oeste 17 Oeste 0 -- -- 30
2019-02-04 13:00:00 10.6 6 Oeste 17 Oeste 0 -- -- 32
2019-02-04 12:00:00 9.7 5 Sudoeste 14 Sur 0 -- -- 38
2019-02-04 11:00:00 7.5 9 Oeste 23 Sudoeste 0 -- -- 46
2019-02-04 10:00:00 5.3 5 Sudoeste 10 Sudoeste 0 -- -- 59
2019-02-04 09:00:00 1.3 2 Sudoeste 14 Sur 0 -- -- 69
2019-02-04 08:00:00 0.1 4 Sudoeste 10 Sur 0 -- -- 75
2019-02-04 07:00:00 0.2 0 Calma 9 Sur 0 -- -- 80
2019-02-04 06:00:00 1.9 3 Sur 18 Oeste 0 -- -- 74
2019-02-04 05:00:00 2.5 8 Oeste 26 Oeste 0 -- -- 72
2019-02-04 04:00:00 2.9 8 Oeste 27 Oeste 0 -- -- 72
2019-02-04 03:00:00 3.2 13 Oeste 32 Oeste 0 -- -- 72
2019-02-04 02:00:00 2.7 17 Oeste 33 Oeste 0 -- -- 74
2019-02-04 01:00:00 3.1 23 Oeste 40 Oeste 0 -- -- 71
2019-02-04 00:00:00 3.2 19 Oeste 35 Oeste 0 -- -- 71
2019-02-03 23:00:00 3 17 Oeste 34 Oeste 0 -- -- 69
2019-02-03 22:00:00 3.2 19 Noroeste 36 Noroeste 0 -- -- 70
2019-02-03 21:00:00 3.4 15 Oeste 41 Noroeste 0 -- -- 63
2019-02-03 20:00:00 3.9 18 Oeste 35 Oeste 0 -- -- 59
2019-02-03 19:00:00 4.3 18 Oeste 37 Noroeste 0 -- -- 51
2019-02-03 18:00:00 5.8 22 Noroeste 52 Noroeste 0 -- -- 35
2019-02-03 17:00:00 7 31 Noroeste 68 Noroeste 0 -- -- 33
2019-02-03 16:00:00 7.3 35 Noroeste 59 Noroeste 0 -- -- 33
2019-02-03 15:00:00 7.2 32 Noroeste 63 Oeste 0 -- -- 39
2019-02-03 14:00:00 6.8 34 Noroeste 66 Noroeste 0 -- -- 42
2019-02-03 13:00:00 6.3 33 Noroeste 63 Noroeste 0 -- -- 46
2019-02-03 12:00:00 5.2 32 Noroeste 65 Noroeste 0 -- -- 57
2019-02-03 11:00:00 3.9 32 Noroeste 67 Noroeste 0 -- -- 59
2019-02-03 10:00:00 3.2 30 Noroeste 67 Oeste 0 -- -- 63
2019-02-03 09:00:00 2.1 31 Oeste 57 Noroeste 0 -- -- 69
2019-02-03 08:00:00 1.8 30 Oeste 55 Oeste 0 -- -- 69
2019-02-03 07:00:00 1.3 24 Oeste 50 Oeste 0 -- -- 71
2019-02-03 06:00:00 1.7 26 Oeste 58 Noroeste 0 -- -- 69
2019-02-03 05:00:00 1.8 27 Noroeste 60 Noroeste 0 -- -- 70
2019-02-03 04:00:00 2.5 32 Noroeste 63 Oeste 0 -- -- 68
2019-02-03 03:00:00 2.2 30 Oeste 53 Oeste 0 -- -- 74
2019-02-03 02:00:00 2.4 27 Oeste 53 Oeste 0 -- -- 75
2019-02-03 01:00:00 2.6 30 Oeste 64 Oeste 0 -- -- 74
2019-02-03 00:00:00 3 28 Oeste 51 Noroeste 0 -- -- 71
2019-02-02 23:00:00 2.7 24 Oeste 47 Oeste 0 -- -- 75
2019-02-02 22:00:00 2.7 26 Oeste 49 Oeste 0 -- -- 75
2019-02-02 21:00:00 2.8 30 Oeste 55 Oeste 0 -- -- 74
2019-02-02 20:00:00 3.6 25 Oeste 53 Oeste 0 -- -- 61
2019-02-02 19:00:00 4.6 28 Oeste 60 Oeste 0 -- -- 56
2019-02-02 18:00:00 5.7 33 Oeste 68 Noroeste 0 -- -- 52
2019-02-02 17:00:00 6.8 38 Oeste 75 Oeste 0 -- -- 49
2019-02-02 16:00:00 6.3 32 Oeste 74 Oeste 0 -- -- 55
2019-02-02 15:00:00 6.8 35 Noroeste 73 Noroeste 0 -- -- 55
2019-02-02 14:00:00 7.2 38 Oeste 77 Noroeste 0 -- -- 54
2019-02-02 13:00:00 7.4 33 Oeste 72 Oeste 0 -- -- 55
2019-02-02 12:00:00 7.5 33 Oeste 66 Noroeste 0 -- -- 59
2019-02-02 11:00:00 5.8 28 Oeste 47 Oeste 0 -- -- 72
2019-02-02 10:00:00 4 21 Oeste 53 Oeste 0.3 -- -- 86
2019-02-02 09:00:00 5.2 26 Oeste 50 Oeste 0 -- -- 71
2019-02-02 08:00:00 5.6 23 Oeste 42 Oeste 0 -- -- 67
2019-02-02 07:00:00 5.3 19 Oeste 40 Oeste 0 -- -- 70
2019-02-02 06:00:00 5.9 12 Oeste 24 Oeste 0 -- -- 68
2019-02-02 05:00:00 5.6 18 Oeste 42 Oeste 0 -- -- 70
2019-02-02 04:00:00 6.1 18 Oeste 35 Oeste 0 -- -- 67
2019-02-02 03:00:00 6.3 18 Oeste 35 Oeste 0 -- -- 67
2019-02-02 02:00:00 6.3 14 Oeste 27 Oeste 0 -- -- 67
2019-02-02 01:00:00 5.7 10 Oeste 22 Oeste 0 -- -- 69
2019-02-02 00:00:00 4 0 Calma 14 Sur 0 -- -- 79
2019-02-01 23:00:00 5.1 10 Sudoeste 16 Sudoeste 0 -- -- 75
2019-02-01 22:00:00 5.4 2 Sur 26 Sudoeste 0 -- -- 75
2019-02-01 21:00:00 5.4 18 Sudoeste 42 Oeste 0 -- -- 78
2019-02-01 20:00:00 5.5 17 Noroeste 48 Oeste 1.8 -- -- 88
2019-02-01 19:00:00 10.6 13 Oeste 26 Oeste 0 -- -- 46
2019-02-01 18:00:00 12.2 14 Sudoeste 36 Oeste 0 -- -- 41
2019-02-01 17:00:00 12.8 10 Oeste 35 Oeste 0 -- -- 41
2019-02-01 16:00:00 12.4 6 Oeste 21 Oeste 0 -- -- 46
2019-02-01 15:00:00 12.8 8 Noroeste 23 Noroeste 0 -- -- 48
2019-02-01 14:00:00 12.1 13 Oeste 26 Noroeste 0 -- -- 56
2019-02-01 13:00:00 11.3 3 Sur 14 Sur 0.1 -- -- 63
2019-02-01 12:00:00 8.9 9 Oeste 22 Oeste 1.1 -- -- 82
2019-02-01 11:00:00 9.3 3 Este 6 Este 0 -- -- 83
2019-02-01 10:00:00 8.2 0 Calma 7 Sur 0 -- -- 90
2019-02-01 09:00:00 7.9 6 Sur 12 Sur 0 -- -- 86
2019-02-01 08:00:00 7.9 6 Noroeste 28 Noroeste 0.4 -- -- 87
2019-02-01 07:00:00 8.9 13 Noroeste 30 Noroeste 0.1 -- -- 95
2019-02-01 06:00:00 9.9 13 Noroeste 26 Noroeste 0 -- -- 79
2019-02-01 05:00:00 13.1 8 Sudoeste 14 Sudoeste 0 -- -- 60
2019-02-01 04:00:00 12.4 0 Calma 9 Sur 0 -- -- 63
2019-02-01 03:00:00 11.8 0 Calma 8 Este 0 -- -- 64
2019-02-01 02:00:00 13.6 4 Sudoeste 26 Oeste 0 -- -- 56
2019-02-01 01:00:00 11.2 5 Sudoeste 13 Sudoeste 0 -- -- 68
2019-02-01 00:00:00 11.9 0 Calma 26 Sudoeste 0 -- -- 63
2019-01-31 23:00:00 13.1 14 Sudoeste 24 Sudoeste 0 -- -- 61
2019-01-31 22:00:00 12.2 6 Oeste 19 Sudoeste 0 -- -- 63
2019-01-31 21:00:00 12.3 3 Sudeste 12 Noroeste 0 -- -- 64
2019-01-31 20:00:00 13 0 Calma 18 Sudoeste 0 -- -- 62
2019-01-31 19:00:00 12 0 Calma 13 Oeste 0 -- -- 67
2019-01-31 18:00:00 13.6 0 Calma 30 Oeste 0 -- -- 60
2019-01-31 17:00:00 14.8 9 Oeste 25 Oeste 0 -- -- 62
2019-01-31 16:00:00 12.5 5 Este 11 Este 0 -- -- 74
2019-01-31 15:00:00 14 5 Noroeste 14 Oeste 0 -- -- 62
2019-01-31 14:00:00 13.6 8 Oeste 16 Noroeste 0 -- -- 62
2019-01-31 13:00:00 12 6 Este 12 Este 0 -- -- 75
2019-01-31 12:00:00 8.9 2 Este 9 Este 0 -- -- 89
2019-01-31 11:00:00 6.4 3 Este 5 Este 0.2 -- -- 93
2019-01-31 10:00:00 5.6 0 Calma 5 Sudoeste 0 -- -- 97
2019-01-31 09:00:00 4.1 2 Sudoeste 6 Oeste 0 -- -- 98
2019-01-31 08:00:00 4.4 0 Calma -- -- 0 -- -- 97
2019-01-31 07:00:00 4.4 0 Calma 0 Calma 0 -- -- 97
2019-01-31 06:00:00 4.2 0 Calma 2 Este 0 -- -- 97
2019-01-31 05:00:00 4 0 Calma 4 Este 0 -- -- 96
2019-01-31 04:00:00 4.1 0 Calma 6 Este 0.1 -- -- 94
2019-01-31 03:00:00 4.8 5 Este 13 Este 0 -- -- 93
2019-01-31 02:00:00 4.5 5 Nordeste 9 Este 0.6 -- -- 94
2019-01-31 01:00:00 4 0 Calma 6 Norte 0.8 -- -- 94
2019-01-31 00:00:00 3.4 0 Calma 5 Nordeste 0.5 -- -- 91
2019-01-30 23:00:00 3.4 0 Calma 9 Oeste 0.3 -- -- 79
2019-01-30 22:00:00 3.2 6 Oeste 10 Sudoeste 0 -- -- 72
2019-01-30 21:00:00 3 0 Calma 12 Sudoeste 0 -- -- 71
2019-01-30 20:00:00 4.3 0 Calma 6 Sur 0 -- -- 62
2019-01-30 19:00:00 6.4 0 Calma 9 Oeste 0 -- -- 50
2019-01-30 18:00:00 9.2 7 Oeste 23 Oeste 0 -- -- 41
2019-01-30 17:00:00 10.5 12 Noroeste 28 Noroeste 0 -- -- 40
2019-01-30 16:00:00 11.2 15 Noroeste 31 Noroeste 0 -- -- 40
2019-01-30 15:00:00 11.4 15 Oeste 38 Oeste 0 -- -- 41
2019-01-30 14:00:00 11 17 Oeste 34 Oeste 0 -- -- 44
2019-01-30 13:00:00 10.4 18 Oeste 32 Oeste 0 -- -- 48
2019-01-30 12:00:00 8.9 19 Noroeste 32 Noroeste 0 -- -- 53
2019-01-30 11:00:00 8.2 4 Sur 12 Sudoeste 0 -- -- 63
2019-01-30 10:00:00 5.8 4 Oeste 8 Oeste 0 -- -- 74
2019-01-30 09:00:00 2.9 0 Calma 7 Oeste 0 -- -- 86
2019-01-30 08:00:00 2.9 2 Noroeste 7 Oeste 0 -- -- 82
2019-01-30 07:00:00 4.4 0 Calma 8 Oeste 0 -- -- 75
2019-01-30 06:00:00 4.7 2 Sudoeste 17 Noroeste 0 -- -- 71
2019-01-30 05:00:00 4.8 6 Noroeste 15 Oeste 0 -- -- 72
2019-01-30 04:00:00 4.9 11 Noroeste 23 Oeste 0 -- -- 72
2019-01-30 03:00:00 5.6 14 Oeste 25 Oeste 0 -- -- 72
2019-01-30 02:00:00 4.4 9 Oeste 30 Oeste 0 -- -- 80
2019-01-30 01:00:00 5.4 12 Oeste 28 Oeste 0 -- -- 77
2019-01-30 00:00:00 5.9 15 Oeste 34 Noroeste 0 -- -- 76
2019-01-29 23:00:00 6.2 13 Oeste 26 Oeste 0 -- -- 83
2019-01-29 22:00:00 6.8 8 Oeste 18 Oeste 0.1 -- -- 87
2019-01-29 21:00:00 6.5 2 Sudoeste 12 Sudoeste 0 -- -- 94
2019-01-29 20:00:00 7 6 Oeste 43 Noroeste 2.3 -- -- 94
2019-01-29 19:00:00 7.3 7 Norte 14 Norte 0.5 -- -- 95
2019-01-29 18:00:00 8 0 Calma 9 Sudeste 0.3 -- -- 90
2019-01-29 17:00:00 8.7 0 Calma 7 Sudoeste 1 -- -- 84
2019-01-29 16:00:00 10.3 0 Calma 9 Oeste 0.1 -- -- 63
2019-01-29 15:00:00 10.4 9 Noroeste 17 Noroeste 0 -- -- 57
2019-01-29 14:00:00 10.4 9 Oeste 24 Oeste 0 -- -- 57
2019-01-29 13:00:00 9.4 13 Oeste 28 Oeste 0 -- -- 57
2019-01-29 12:00:00 9.1 18 Oeste 37 Oeste 0 -- -- 56
2019-01-29 11:00:00 8.9 19 Oeste 33 Oeste 0 -- -- 57
2019-01-29 10:00:00 6.4 6 Oeste 14 Oeste 0 -- -- 69
2019-01-29 09:00:00 5 7 Sur 14 Sur 0 -- -- 71
2019-01-29 08:00:00 4.1 3 Sudoeste 12 Sudoeste 0 -- -- 73
2019-01-29 07:00:00 4.3 3 Sur 21 Oeste 0 -- -- 75
2019-01-29 06:00:00 5.5 14 Oeste 23 Oeste 0 -- -- 72
2019-01-29 05:00:00 5.6 10 Oeste 34 Oeste 0 -- -- 71
2019-01-29 04:00:00 5.2 14 Oeste 31 Noroeste 0 -- -- 72
2019-01-29 03:00:00 6.2 19 Oeste 49 Noroeste 0 -- -- 69
2019-01-29 02:00:00 6.2 17 Oeste 33 Oeste 0 -- -- 69
2019-01-29 01:00:00 7 20 Oeste 43 Oeste 0 -- -- 67
2019-01-29 00:00:00 7.8 21 Oeste 42 Noroeste 0 -- -- 64
2019-01-28 23:00:00 7.4 17 Oeste 38 Oeste 0 -- -- 66
2019-01-28 22:00:00 7.4 17 Oeste 53 Noroeste 0 -- -- 67
2019-01-28 21:00:00 7.9 21 Oeste 42 Oeste 0 -- -- 65
2019-01-28 20:00:00 7.7 22 Oeste 48 Noroeste 0 -- -- 65
2019-01-28 19:00:00 8 27 Noroeste 54 Noroeste 0 -- -- 63
2019-01-28 18:00:00 8.8 32 Oeste 67 Oeste 0 -- -- 60
2019-01-28 17:00:00 9.9 32 Oeste 61 Oeste 0 -- -- 56
2019-01-28 16:00:00 10.2 35 Noroeste 73 Oeste 0 -- -- 60
2019-01-28 15:00:00 10 28 Noroeste 60 Noroeste 0 -- -- 61
2019-01-28 14:00:00 9.7 29 Oeste 62 Oeste 0 -- -- 64
2019-01-28 13:00:00 9.2 32 Oeste 64 Oeste 0 -- -- 63
2019-01-28 12:00:00 9.9 32 Noroeste 63 Noroeste 0 -- -- 55
2019-01-28 11:00:00 9.8 26 Oeste 51 Oeste 0 -- -- 52
2019-01-28 10:00:00 9 26 Oeste 49 Oeste 0 -- -- 55
2019-01-28 09:00:00 7.2 27 Oeste 48 Oeste 0 -- -- 59
2019-01-28 08:00:00 6.5 18 Oeste 34 Sudoeste 0 -- -- 60
2019-01-28 07:00:00 1.7 2 Sudoeste 8 Sudoeste 0 -- -- 77
2019-01-28 06:00:00 2.2 0 Calma 10 Oeste 0 -- -- 80
2019-01-28 05:00:00 4.2 5 Oeste 21 Oeste 0 -- -- 73
2019-01-28 04:00:00 5.7 10 Oeste 20 Noroeste 0 -- -- 69
2019-01-28 03:00:00 6 10 Oeste 30 Noroeste 0 -- -- 66
2019-01-28 02:00:00 5.1 10 Noroeste 35 Oeste 0 -- -- 66
2019-01-28 01:00:00 5.8 20 Oeste 38 Noroeste 0 -- -- 63
2019-01-28 00:00:00 6 18 Oeste 38 Noroeste 0 -- -- 60
2019-01-27 23:00:00 6.2 19 Oeste 39 Oeste 0 -- -- 60
2019-01-27 22:00:00 6.5 18 Oeste 40 Noroeste 0 -- -- 57
2019-01-27 21:00:00 6.3 19 Oeste 43 Oeste 0 -- -- 57
2019-01-27 20:00:00 6.5 21 Noroeste 55 Oeste 0 -- -- 56
2019-01-27 19:00:00 7.5 30 Noroeste 57 Noroeste 0 -- -- 53
2019-01-27 18:00:00 7.9 31 Noroeste 55 Noroeste 0 -- -- 54
2019-01-27 17:00:00 9.6 32 Noroeste 61 Noroeste 0 -- -- 48
2019-01-27 16:00:00 10.7 32 Noroeste 62 Noroeste 0 -- -- 44
2019-01-27 15:00:00 11.2 32 Noroeste 59 Noroeste 0 -- -- 44
2019-01-27 14:00:00 11.4 29 Noroeste 58 Oeste 0 -- -- 44
2019-01-27 13:00:00 11.4 27 Noroeste 50 Noroeste 0 -- -- 48
2019-01-27 12:00:00 10.4 18 Oeste 29 Oeste 0 -- -- 60
2019-01-27 11:00:00 8.1 10 Oeste 22 Oeste 0 -- -- 70
2019-01-27 10:00:00 7.2 8 Oeste 22 Oeste 0 -- -- 72
2019-01-27 09:00:00 5.7 12 Oeste 22 Oeste 0 -- -- 75
2019-01-27 08:00:00 2.1 2 Sudoeste 7 Sudoeste 0 -- -- 86
2019-01-27 07:00:00 2.2 2 Oeste 10 Sudoeste 0 -- -- 86
2019-01-27 06:00:00 1.1 3 Sudoeste 12 Sudoeste 0 -- -- 90
2019-01-27 05:00:00 1.8 3 Oeste 9 Oeste 0 -- -- 89
2019-01-27 04:00:00 2 5 Sudoeste 11 Oeste 0 -- -- 91
2019-01-27 03:00:00 2.3 0 Calma 5 Sudoeste 0 -- -- 91
2019-01-27 02:00:00 1.8 0 Calma 6 Oeste 0 -- -- 92
2019-01-27 01:00:00 3.2 4 Oeste 9 Oeste 0 -- -- 90
2019-01-27 00:00:00 2.9 5 Sudoeste 9 Sudoeste 0 -- -- 92
2019-01-26 23:00:00 2.8 3 Oeste 6 Oeste 0 -- -- 92
2019-01-26 22:00:00 3.7 4 Oeste 8 Oeste 0 -- -- 86
2019-01-26 21:00:00 4.6 0 Calma 5 Sudoeste 0 -- -- 81
2019-01-26 20:00:00 6.2 0 Calma 4 Sur 0 -- -- 74
2019-01-26 19:00:00 8.6 0 Calma 4 Sudeste 0 -- -- 64
2019-01-26 18:00:00 12.4 0 Calma 6 Norte 0 -- -- 52
2019-01-26 17:00:00 14.4 3 Norte 7 Norte 0 -- -- 49
2019-01-26 16:00:00 15.4 2 Sudoeste 12 Oeste 0 -- -- 47
2019-01-26 15:00:00 13.9 4 Oeste 14 Oeste 0 -- -- 49
2019-01-26 14:00:00 12.5 5 Noroeste 21 Oeste 0 -- -- 52
2019-01-26 13:00:00 11.8 11 Oeste 24 Oeste 0 -- -- 55
2019-01-26 12:00:00 11.4 14 Oeste 28 Oeste 0 -- -- 58
2019-01-26 11:00:00 10.3 13 Oeste 26 Oeste 0 -- -- 61
2019-01-26 10:00:00 9 2 Sudoeste 9 Sudoeste 0 -- -- 70
2019-01-26 09:00:00 5.8 5 Oeste 12 Sudoeste 0 -- -- 79
2019-01-26 08:00:00 5.6 7 Sudoeste 14 Sudoeste 0 -- -- 79
2019-01-26 07:00:00 5.8 2 Sur 9 Sudoeste 0 -- -- 78
2019-01-26 06:00:00 7 6 Sudoeste 12 Sudoeste 0 -- -- 75
2019-01-26 05:00:00 7.7 7 Oeste 16 Oeste 0 -- -- 73
2019-01-26 04:00:00 8.3 8 Oeste 17 Sudoeste 0 -- -- 71
2019-01-26 03:00:00 8.5 11 Oeste 23 Oeste 0 -- -- 71
2019-01-26 02:00:00 8.5 13 Oeste 30 Oeste 0 -- -- 71
2019-01-26 01:00:00 9 16 Oeste 27 Oeste 0 -- -- 70
2019-01-26 00:00:00 9.1 14 Oeste 22 Sudoeste 0 -- -- 70
2019-01-25 23:00:00 8.8 9 Sudoeste 39 Oeste 0 -- -- 70
2019-01-25 22:00:00 9.3 21 Oeste 51 Oeste 0 -- -- 67
2019-01-25 21:00:00 9.4 26 Oeste 55 Oeste 0 -- -- 66
2019-01-25 20:00:00 9.7 27 Oeste 51 Oeste 0 -- -- 64
2019-01-25 19:00:00 10 26 Oeste 56 Oeste 0 -- -- 63
2019-01-25 18:00:00 11.1 29 Oeste 53 Oeste 0 -- -- 61
2019-01-25 17:00:00 12.4 32 Oeste 62 Oeste 0 -- -- 58
2019-01-25 16:00:00 13.3 32 Oeste 59 Oeste 0 -- -- 55
2019-01-25 15:00:00 13.4 31 Oeste 60 Noroeste 0 -- -- 56
2019-01-25 14:00:00 13.3 32 Oeste 57 Oeste 0 -- -- 57
2019-01-25 13:00:00 13 30 Oeste 60 Oeste 0 -- -- 59
2019-01-25 12:00:00 12.6 33 Noroeste 63 Oeste 0 -- -- 62
2019-01-25 11:00:00 11.9 32 Oeste 60 Oeste 0 -- -- 66
2019-01-25 10:00:00 10.9 29 Oeste 55 Oeste 0 -- -- 69
2019-01-25 09:00:00 9.9 26 Oeste 49 Oeste 0 -- -- 72
2019-01-25 08:00:00 8.9 18 Oeste 40 Oeste 0 -- -- 78
2019-01-25 07:00:00 8.7 18 Oeste 35 Oeste 0 -- -- 79
2019-01-25 06:00:00 7.9 16 Oeste 36 Oeste 0 -- -- 80
2019-01-25 05:00:00 6.9 15 Oeste 35 Oeste 0 -- -- 79
2019-01-25 04:00:00 7 19 Noroeste 39 Oeste 0 -- -- 75
2019-01-25 03:00:00 6.6 21 Oeste 37 Oeste 0 -- -- 74
2019-01-25 02:00:00 5.8 14 Oeste 33 Oeste 0 -- -- 75
2019-01-25 01:00:00 5.6 18 Oeste 32 Oeste 0 -- -- 73
2019-01-25 00:00:00 5.4 16 Oeste 35 Oeste 0 -- -- 74
2019-01-24 23:00:00 4.7 13 Oeste 26 Oeste 0 -- -- 72
2019-01-24 22:00:00 4.8 10 Oeste 23 Oeste 0 -- -- 69
2019-01-24 21:00:00 4.6 11 Oeste 24 Oeste 0 -- -- 69
2019-01-24 20:00:00 4.4 9 Oeste 36 Noroeste 0 -- -- 71
2019-01-24 19:00:00 5.3 18 Oeste 32 Oeste 0 -- -- 67
2019-01-24 18:00:00 6.3 17 Oeste 46 Oeste 0 -- -- 61
2019-01-24 17:00:00 7.6 24 Oeste 45 Oeste 0 -- -- 55
2019-01-24 16:00:00 7.7 25 Noroeste 54 Noroeste 0 -- -- 55
2019-01-24 15:00:00 8 25 Oeste 50 Oeste 0 -- -- 52
2019-01-24 14:00:00 7.8 22 Noroeste 49 Oeste 0 -- -- 52
2019-01-24 13:00:00 6.4 28 Noroeste 51 Noroeste 0 -- -- 55
2019-01-24 12:00:00 5.7 25 Noroeste 46 Oeste 0 -- -- 56
2019-01-24 11:00:00 5.5 23 Noroeste 40 Noroeste 0 -- -- 60
2019-01-24 10:00:00 4.6 19 Noroeste 38 Oeste 0 -- -- 71
2019-01-24 09:00:00 4.2 19 Noroeste 44 Noroeste 0 -- -- 75
2019-01-24 08:00:00 4.2 25 Noroeste 54 Noroeste 0 -- -- 74
2019-01-24 07:00:00 4.5 23 Noroeste 52 Noroeste 0 -- -- 75
2019-01-24 06:00:00 5.1 28 Noroeste 100 Noroeste 0 -- -- 75
2019-01-24 05:00:00 5.3 26 Noroeste 51 Oeste 0 -- -- 75
2019-01-24 04:00:00 5.2 23 Noroeste 51 Noroeste 0 -- -- 76
2019-01-24 03:00:00 6 24 Noroeste 47 Oeste 0 -- -- 74
2019-01-24 02:00:00 6.2 22 Noroeste 53 Oeste 0 -- -- 75
2019-01-24 01:00:00 6.6 27 Noroeste 56 Noroeste 0 -- -- 74
2019-01-24 00:00:00 6.6 30 Noroeste 60 Noroeste 0 -- -- 75